sensor_id;sensor_type;location;lat;lon;timestamp;temperature;humidity
49821;DHT22;36893;52.520;13.450;2023-04-15T00:00:22;21.00;62.60
49821;DHT22;36893;52.520;13.450;2023-04-15T00:10:24;21.00;62.60
49821;DHT22;36893;52.520;13.450;2023-04-15T00:20:25;20.90;62.60
49821;DHT22;36893;52.520;13.450;2023-04-15T00:30:25;21.00;62.60
49821;DHT22;36893;52.520;13.450;2023-04-15T00:40:26;21.00;62.60
49821;DHT22;36893;52.520;13.450;2023-04-15T00:50:27;20.90;62.60
49821;DHT22;36893;52.520;13.450;2023-04-15T01:00:28;20.90;62.60
49821;DHT22;36893;52.520;13.450;2023-04-15T01:10:30;20.90;62.60
49821;DHT22;36893;52.520;13.450;2023-04-15T01:20:31;20.90;62.60
49821;DHT22;36893;52.520;13.450;2023-04-15T01:30:35;20.90;62.60
49821;DHT22;36893;52.520;13.450;2023-04-15T01:40:35;20.90;62.80
49821;DHT22;36893;52.520;13.450;2023-04-15T01:50:36;20.90;62.80
49821;DHT22;36893;52.520;13.450;2023-04-15T02:00:37;20.90;62.70
49821;DHT22;36893;52.520;13.450;2023-04-15T02:10:38;20.90;62.80
49821;DHT22;36893;52.520;13.450;2023-04-15T02:20:38;20.90;62.80
49821;DHT22;36893;52.520;13.450;2023-04-15T02:30:40;20.90;62.90
49821;DHT22;36893;52.520;13.450;2023-04-15T02:40:41;20.90;62.80
49821;DHT22;36893;52.520;13.450;2023-04-15T02:50:42;20.90;62.90
49821;DHT22;36893;52.520;13.450;2023-04-15T03:00:42;20.90;62.90
49821;DHT22;36893;52.520;13.450;2023-04-15T03:10:43;20.90;62.90
49821;DHT22;36893;52.520;13.450;2023-04-15T03:20:43;20.90;62.90
49821;DHT22;36893;52.520;13.450;2023-04-15T03:30:44;20.90;62.90
49821;DHT22;36893;52.520;13.450;2023-04-15T03:40:45;20.90;62.90
49821;DHT22;36893;52.520;13.450;2023-04-15T03:50:46;20.90;63.00
49821;DHT22;36893;52.520;13.450;2023-04-15T04:00:47;20.90;63.00
49821;DHT22;36893;52.520;13.450;2023-04-15T04:10:48;20.90;63.00
49821;DHT22;36893;52.520;13.450;2023-04-15T04:20:48;20.90;63.00
49821;DHT22;36893;52.520;13.450;2023-04-15T04:30:49;20.90;63.00
49821;DHT22;36893;52.520;13.450;2023-04-15T04:40:50;20.90;63.00
49821;DHT22;36893;52.520;13.450;2023-04-15T04:50:51;20.90;63.00
49821;DHT22;36893;52.520;13.450;2023-04-15T05:00:51;20.90;63.10
49821;DHT22;36893;52.520;13.450;2023-04-15T05:10:52;20.90;63.10
49821;DHT22;36893;52.520;13.450;2023-04-15T05:20:53;20.80;63.00
49821;DHT22;36893;52.520;13.450;2023-04-15T05:30:54;20.90;63.10
49821;DHT22;36893;52.520;13.450;2023-04-15T05:40:54;20.80;63.10
49821;DHT22;36893;52.520;13.450;2023-04-15T05:50:55;20.90;63.20
49821;DHT22;36893;52.520;13.450;2023-04-15T06:00:56;20.80;63.10
49821;DHT22;36893;52.520;13.450;2023-04-15T06:10:58;20.80;63.10
49821;DHT22;36893;52.520;13.450;2023-04-15T06:20:58;20.80;63.10
49821;DHT22;36893;52.520;13.450;2023-04-15T06:30:59;20.80;63.10
49821;DHT22;36893;52.520;13.450;2023-04-15T06:41:01;20.80;63.20
49821;DHT22;36893;52.520;13.450;2023-04-15T06:51:02;20.80;63.20
49821;DHT22;36893;52.520;13.450;2023-04-15T07:01:03;20.80;63.30
49821;DHT22;36893;52.520;13.450;2023-04-15T07:11:04;20.80;63.30
49821;DHT22;36893;52.520;13.450;2023-04-15T07:21:05;20.80;63.30
49821;DHT22;36893;52.520;13.450;2023-04-15T07:31:06;20.80;63.30
49821;DHT22;36893;52.520;13.450;2023-04-15T07:41:06;20.80;63.40
49821;DHT22;36893;52.520;13.450;2023-04-15T07:51:07;20.80;63.30
49821;DHT22;36893;52.520;13.450;2023-04-15T08:01:08;20.80;63.30
49821;DHT22;36893;52.520;13.450;2023-04-15T08:11:08;20.80;63.30
49821;DHT22;36893;52.520;13.450;2023-04-15T08:21:10;20.80;63.40
49821;DHT22;36893;52.520;13.450;2023-04-15T08:31:12;20.80;63.40
49821;DHT22;36893;52.520;13.450;2023-04-15T08:41:21;20.80;63.40
49821;DHT22;36893;52.520;13.450;2023-04-15T08:51:25;20.80;63.50
49821;DHT22;36893;52.520;13.450;2023-04-15T09:01:27;20.80;63.50
49821;DHT22;36893;52.520;13.450;2023-04-15T09:11:29;20.80;63.50
49821;DHT22;36893;52.520;13.450;2023-04-15T09:21:30;20.80;63.50
49821;DHT22;36893;52.520;13.450;2023-04-15T09:31:31;20.80;63.50
49821;DHT22;36893;52.520;13.450;2023-04-15T09:41:32;20.80;63.50
49821;DHT22;36893;52.520;13.450;2023-04-15T09:51:34;20.80;63.50
49821;DHT22;36893;52.520;13.450;2023-04-15T10:01:36;20.80;63.60
49821;DHT22;36893;52.520;13.450;2023-04-15T10:11:37;20.80;63.60
49821;DHT22;36893;52.520;13.450;2023-04-15T10:21:39;20.80;63.50
49821;DHT22;36893;52.520;13.450;2023-04-15T10:31:41;20.80;63.50
49821;DHT22;36893;52.520;13.450;2023-04-15T10:41:41;20.80;63.50
49821;DHT22;36893;52.520;13.450;2023-04-15T10:51:46;20.90;63.60
49821;DHT22;36893;52.520;13.450;2023-04-15T11:02:02;20.90;63.70
49821;DHT22;36893;52.520;13.450;2023-04-15T11:22:11;20.90;63.70
49821;DHT22;36893;52.520;13.450;2023-04-15T11:32:11;20.90;63.60
49821;DHT22;36893;52.520;13.450;2023-04-15T11:42:18;20.90;63.70
49821;DHT22;36893;52.520;13.450;2023-04-15T11:52:18;20.90;63.70
49821;DHT22;36893;52.520;13.450;2023-04-15T12:02:19;20.90;63.70
49821;DHT22;36893;52.520;13.450;2023-04-15T12:12:31;20.90;63.70
49821;DHT22;36893;52.520;13.450;2023-04-15T12:22:36;20.90;63.70
49821;DHT22;36893;52.520;13.450;2023-04-15T12:32:38;20.90;63.80
49821;DHT22;36893;52.520;13.450;2023-04-15T12:42:39;20.90;63.80
49821;DHT22;36893;52.520;13.450;2023-04-15T12:52:39;20.90;63.80
49821;DHT22;36893;52.520;13.450;2023-04-15T13:02:42;20.90;63.80
49821;DHT22;36893;52.520;13.450;2023-04-15T13:12:43;20.90;63.90
49821;DHT22;36893;52.520;13.450;2023-04-15T13:22:46;20.90;63.90
49821;DHT22;36893;52.520;13.450;2023-04-15T13:32:46;20.90;63.90
49821;DHT22;36893;52.520;13.450;2023-04-15T13:42:47;20.90;63.90
49821;DHT22;36893;52.520;13.450;2023-04-15T13:52:48;20.90;63.90
49821;DHT22;36893;52.520;13.450;2023-04-15T14:02:48;20.90;63.90
49821;DHT22;36893;52.520;13.450;2023-04-15T14:12:49;20.70;64.10
49821;DHT22;36893;52.520;13.450;2023-04-15T14:22:50;20.60;64.80
49821;DHT22;36893;52.520;13.450;2023-04-15T14:32:50;20.50;64.80
49821;DHT22;36893;52.520;13.450;2023-04-15T14:42:51;20.60;64.80
49821;DHT22;36893;52.520;13.450;2023-04-15T14:52:52;20.70;64.80
49821;DHT22;36893;52.520;13.450;2023-04-15T15:02:52;20.70;64.90
49821;DHT22;36893;52.520;13.450;2023-04-15T15:12:53;20.80;65.00
49821;DHT22;36893;52.520;13.450;2023-04-15T15:22:54;20.80;65.10
49821;DHT22;36893;52.520;13.450;2023-04-15T15:32:54;20.80;65.20
49821;DHT22;36893;52.520;13.450;2023-04-15T15:42:55;20.80;65.30
49821;DHT22;36893;52.520;13.450;2023-04-15T15:52:56;20.80;65.40
49821;DHT22;36893;52.520;13.450;2023-04-15T16:02:57;20.80;65.40
49821;DHT22;36893;52.520;13.450;2023-04-15T16:12:58;20.80;65.40
49821;DHT22;36893;52.520;13.450;2023-04-15T16:22:59;20.80;65.50
49821;DHT22;36893;52.520;13.450;2023-04-15T16:33:08;20.80;65.50
49821;DHT22;36893;52.520;13.450;2023-04-15T16:43:09;20.90;65.60
49821;DHT22;36893;52.520;13.450;2023-04-15T16:53:10;20.80;65.60
49821;DHT22;36893;52.520;13.450;2023-04-15T17:03:11;20.80;65.70
49821;DHT22;36893;52.520;13.450;2023-04-15T17:13:12;20.90;65.80
49821;DHT22;36893;52.520;13.450;2023-04-15T17:23:12;20.80;65.80
49821;DHT22;36893;52.520;13.450;2023-04-15T17:33:13;20.90;65.90
49821;DHT22;36893;52.520;13.450;2023-04-15T17:43:14;20.80;66.00
49821;DHT22;36893;52.520;13.450;2023-04-15T17:53:14;20.90;66.10
49821;DHT22;36893;52.520;13.450;2023-04-15T18:03:15;20.80;66.10
49821;DHT22;36893;52.520;13.450;2023-04-15T18:13:16;20.90;66.30
49821;DHT22;36893;52.520;13.450;2023-04-15T18:23:16;20.90;66.40
49821;DHT22;36893;52.520;13.450;2023-04-15T18:33:17;20.90;66.40
49821;DHT22;36893;52.520;13.450;2023-04-15T18:43:18;20.90;66.60
49821;DHT22;36893;52.520;13.450;2023-04-15T18:53:19;20.90;66.60
49821;DHT22;36893;52.520;13.450;2023-04-15T19:03:20;20.90;66.70
49821;DHT22;36893;52.520;13.450;2023-04-15T19:13:21;20.90;66.90
49821;DHT22;36893;52.520;13.450;2023-04-15T19:23:22;20.90;67.10
49821;DHT22;36893;52.520;13.450;2023-04-15T19:33:23;20.90;67.20
49821;DHT22;36893;52.520;13.450;2023-04-15T19:43:26;20.80;67.20
49821;DHT22;36893;52.520;13.450;2023-04-15T19:53:28;20.80;67.20
49821;DHT22;36893;52.520;13.450;2023-04-15T20:03:28;20.80;67.30
49821;DHT22;36893;52.520;13.450;2023-04-15T20:13:30;20.80;67.30
49821;DHT22;36893;52.520;13.450;2023-04-15T20:23:31;20.80;67.30
49821;DHT22;36893;52.520;13.450;2023-04-15T20:33:34;20.80;67.30
49821;DHT22;36893;52.520;13.450;2023-04-15T20:43:34;20.70;67.30
49821;DHT22;36893;52.520;13.450;2023-04-15T20:53:35;20.80;67.40
49821;DHT22;36893;52.520;13.450;2023-04-15T21:03:36;20.70;67.40
49821;DHT22;36893;52.520;13.450;2023-04-15T21:13:36;20.70;67.40
49821;DHT22;36893;52.520;13.450;2023-04-15T21:23:37;20.70;67.40
49821;DHT22;36893;52.520;13.450;2023-04-15T21:33:38;20.70;67.40
49821;DHT22;36893;52.520;13.450;2023-04-15T21:43:38;20.70;67.50
49821;DHT22;36893;52.520;13.450;2023-04-15T21:53:39;20.70;67.40
49821;DHT22;36893;52.520;13.450;2023-04-15T22:03:39;20.70;67.50
49821;DHT22;36893;52.520;13.450;2023-04-15T22:13:40;20.70;67.60
49821;DHT22;36893;52.520;13.450;2023-04-15T22:23:43;20.70;67.50
49821;DHT22;36893;52.520;13.450;2023-04-15T22:33:45;20.70;67.50
49821;DHT22;36893;52.520;13.450;2023-04-15T22:43:46;20.70;67.20
49821;DHT22;36893;52.520;13.450;2023-04-15T22:53:46;20.70;67.60
49821;DHT22;36893;52.520;13.450;2023-04-15T23:03:49;20.70;67.60
49821;DHT22;36893;52.520;13.450;2023-04-15T23:13:50;20.70;67.60
49821;DHT22;36893;52.520;13.450;2023-04-15T23:23:52;20.70;67.70
49821;DHT22;36893;52.520;13.450;2023-04-15T23:33:53;20.70;67.70
49821;DHT22;36893;52.520;13.450;2023-04-15T23:43:53;20.70;67.70
49821;DHT22;36893;52.520;13.450;2023-04-15T23:53:54;20.70;67.70
